Route Details

Aircraft Information
Group: European Fleet
Types: A30F, A31F, B738
Route Data
Distance: 145nm
Duration: 0h 35m
Origin METAR: EDDK 181720Z AUTO 36005KT 340V040 CAVOK 25/15 Q1012 NOSIG
Dest. METAR: EDDW 181720Z AUTO 34009KT 300V010 9999 SCT021 SCT025 22/16 Q1012 NOSIG
Freight Data
(for Aug 18, 2022)
Load Factor:
47%
Manifested Cargo: 50,434lbs
Financial History
Total Freight: 599,989lbs
Average Load: 0lbs/flt
Fuel Used: 81,849lbs
Avg. Fuel Used: 0lbs/flt
Fuel Expense: $31,563
Avg. Fuel Expense: $0
Avg. Fuel Cost: $0/lbs
Total Gross Income: $1,275,181
Pilot Pay: $2,639
Total Expenses: $173,534
Total Revenue: $1,067,673
Average Revenue: $0

Capitol Logistics 585




EDDK
Cologne Bonn Airport
Cologne, DE
EDDW
Bremen Airport
Bremen, DE